Search for airport 
image banner adimage banner adimage banner ad
image banner ad

0PA3 - Robbins Farm

Located in Troy, United States

ICAO - 0PA3, IATA -

Data provided by Airmate  

General information

Coordinates: N41°44'50" W76°45'37"
Elevation is 1455 feet MSL.
Magnetic variation is -11° East
View others Airports in Pennsylvania

Operational data

Special qualification required
Current time UTC:
Current local time:
Weather at : KELM - Elmira/Corning Rgnl ( 47 km )
METAR: KELM 091253Z 20005KT 10SM CLR 07/07 A3005 RMK AO2 SLP182 T00670067 $
TAF: KELM 091120Z 0912/1012 VRB03KT P6SM BKN100 FM091300 21004KT P6SM FEW100 FM091800 18006KT 4SM RA BR OVC018 FM092100 15005KT 2SM SHRA BR OVC010 FM100900 33005KT 6SM BR OVC010
View NOTAMs / SUP AIP / TFR affecting this airport [VIEW]
Communications frequencies: [VIEW]

Runways:

RWY identifierQFULength (ft)Width (ft)SurfaceLDA (ft)
17153°1977100GRASS
35333°1977100GRASS

Airport contact information

Address: Troy United States

Satellite view of 0PA3